Boring, Oregon
Current Conditions -  °F | °C
As of 3:53 PM on Friday 24 Oct 2014 (Local Time) from KTTD Reporting Station
Light Rain Light Rain  
Wind Chill: 55°   Ceiling: 9000
Heat Index: 55°   Visibility: 8mi
Dew Point: 49°   Wind: 13mph
Humidity: 80%   Direction: 80°E
Pressure: 29.86"   Gusts: NA
Location:  45.43°N, 122.38°W
Report Text: KTTD 242253Z 08011KT 8SM -RA SCT070 OVC090 13/09 A2986 RMK AO2 SLP110 P0004 T01280094
Loading
Personal Weather Stations






























Interactive Weather Map
Tropical Storm Tracking
New forecast layout! Learn more

10-Day Weather Forecast

Advertisements
Track Severe Weather on mobile